Hannibal, Ohio
Current Conditions -  °F | °C
As of 7:53 AM on Wednesday 26 Nov 2014 (Local Time) from KHLG Reporting Station
Overcast Overcast  
Wind Chill: 23°   Ceiling: 8500
Heat Index: 31°   Visibility: 10mi
Dew Point: 24°   Wind: 8mph
Humidity: 76%   Direction: 20°NNE
Pressure: 30.04"   Gusts: NA
Location:  39.67°N, 80.87°W
Report Text: KHLG 261253Z 02007KT 10SM BKN085 OVC110 M01/M04 A3004 RMK AO2 SLP188 T10061044
Loading
Personal Weather Stations






























Interactive Weather Map New forecast layout! Learn more

10-Day Weather Forecast

Advertisements
Track Severe Weather on mobile